Abingdon, Illinois
Current Conditions -  °F | °C
As of 7:15 PM on Saturday 25 Oct 2014 (Local Time) from KGBG Reporting Station
Clear Clear  
Wind Chill: 13°   Ceiling: Unl
Heat Index: 13°   Visibility: 10mi
Dew Point:   Wind: 5mph
Humidity: 54%   Direction: 280°W
Pressure: 30.02"   Gusts: NA
Location:  40.8°N, 90.4°W
Report Text: KGBG 260015Z AUTO 28004KT 10SM CLR 13/04 A3002 RMK AO2 T01250035
Loading
Personal Weather Stations






























Interactive Weather Map
Tropical Storm Tracking
New forecast layout! Learn more

10-Day Weather Forecast

Advertisements
Track Severe Weather on mobile